sensor_id;sensor_type;location;lat;lon;timestamp;P1;durP1;ratioP1;P2;durP2;ratioP2
15254;SDS011;7730;49.610;11.136;2023-10-08T00:02:25;12.40;;;5.13;;
15254;SDS011;7730;49.610;11.136;2023-10-08T00:04:53;13.73;;;5.65;;
15254;SDS011;7730;49.610;11.136;2023-10-08T00:07:20;12.73;;;5.10;;
15254;SDS011;7730;49.610;11.136;2023-10-08T00:09:49;12.50;;;4.97;;
15254;SDS011;7730;49.610;11.136;2023-10-08T00:12:19;14.02;;;5.95;;
15254;SDS011;7730;49.610;11.136;2023-10-08T00:14:46;13.23;;;5.18;;
15254;SDS011;7730;49.610;11.136;2023-10-08T00:17:19;15.05;;;7.18;;
15254;SDS011;7730;49.610;11.136;2023-10-08T00:19:53;16.60;;;7.45;;
15254;SDS011;7730;49.610;11.136;2023-10-08T00:22:25;15.55;;;7.05;;
15254;SDS011;7730;49.610;11.136;2023-10-08T00:24:53;15.57;;;7.82;;
15254;SDS011;7730;49.610;11.136;2023-10-08T00:27:23;15.75;;;7.78;;
15254;SDS011;7730;49.610;11.136;2023-10-08T00:29:50;15.35;;;7.95;;
15254;SDS011;7730;49.610;11.136;2023-10-08T00:32:17;15.07;;;6.57;;
15254;SDS011;7730;49.610;11.136;2023-10-08T00:34:46;13.63;;;6.25;;
15254;SDS011;7730;49.610;11.136;2023-10-08T00:37:15;13.98;;;5.80;;
15254;SDS011;7730;49.610;11.136;2023-10-08T00:39:42;13.02;;;5.18;;
15254;SDS011;7730;49.610;11.136;2023-10-08T00:42:11;13.90;;;5.65;;
15254;SDS011;7730;49.610;11.136;2023-10-08T00:44:38;12.75;;;5.50;;
15254;SDS011;7730;49.610;11.136;2023-10-08T00:47:13;13.45;;;4.90;;
15254;SDS011;7730;49.610;11.136;2023-10-08T00:49:43;12.70;;;4.90;;
15254;SDS011;7730;49.610;11.136;2023-10-08T00:52:20;12.77;;;4.90;;
15254;SDS011;7730;49.610;11.136;2023-10-08T00:55:03;10.63;;;4.05;;
15254;SDS011;7730;49.610;11.136;2023-10-08T00:57:39;9.80;;;3.97;;
15254;SDS011;7730;49.610;11.136;2023-10-08T01:00:09;11.20;;;4.18;;
15254;SDS011;7730;49.610;11.136;2023-10-08T01:02:46;11.70;;;4.00;;
15254;SDS011;7730;49.610;11.136;2023-10-08T01:05:25;10.63;;;3.90;;
15254;SDS011;7730;49.610;11.136;2023-10-08T01:08:08;11.57;;;4.10;;
15254;SDS011;7730;49.610;11.136;2023-10-08T01:10:37;11.02;;;3.72;;
15254;SDS011;7730;49.610;11.136;2023-10-08T01:13:05;11.32;;;3.90;;
15254;SDS011;7730;49.610;11.136;2023-10-08T01:15:38;11.27;;;3.80;;
15254;SDS011;7730;49.610;11.136;2023-10-08T01:18:06;7.93;;;3.35;;
15254;SDS011;7730;49.610;11.136;2023-10-08T01:20:40;10.07;;;3.75;;
15254;SDS011;7730;49.610;11.136;2023-10-08T01:23:20;10.68;;;3.75;;
15254;SDS011;7730;49.610;11.136;2023-10-08T01:25:52;10.05;;;3.85;;
15254;SDS011;7730;49.610;11.136;2023-10-08T01:28:26;9.82;;;3.80;;
15254;SDS011;7730;49.610;11.136;2023-10-08T01:30:55;9.63;;;3.78;;
15254;SDS011;7730;49.610;11.136;2023-10-08T01:33:25;12.98;;;4.10;;
15254;SDS011;7730;49.610;11.136;2023-10-08T01:35:53;10.10;;;4.10;;
15254;SDS011;7730;49.610;11.136;2023-10-08T01:38:28;10.43;;;3.75;;
15254;SDS011;7730;49.610;11.136;2023-10-08T01:40:57;10.23;;;3.97;;
15254;SDS011;7730;49.610;11.136;2023-10-08T01:43:28;8.98;;;3.72;;
15254;SDS011;7730;49.610;11.136;2023-10-08T01:45:55;10.27;;;3.88;;
15254;SDS011;7730;49.610;11.136;2023-10-08T01:48:23;10.13;;;3.83;;
15254;SDS011;7730;49.610;11.136;2023-10-08T01:50:53;10.45;;;3.72;;
15254;SDS011;7730;49.610;11.136;2023-10-08T01:53:21;9.90;;;3.85;;
15254;SDS011;7730;49.610;11.136;2023-10-08T01:55:49;9.32;;;3.70;;
15254;SDS011;7730;49.610;11.136;2023-10-08T01:58:18;11.18;;;4.25;;
15254;SDS011;7730;49.610;11.136;2023-10-08T02:00:47;10.20;;;4.07;;
15254;SDS011;7730;49.610;11.136;2023-10-08T02:03:15;11.52;;;4.03;;
15254;SDS011;7730;49.610;11.136;2023-10-08T02:05:44;10.52;;;3.95;;
15254;SDS011;7730;49.610;11.136;2023-10-08T02:08:11;10.68;;;3.72;;
15254;SDS011;7730;49.610;11.136;2023-10-08T02:10:39;10.18;;;4.13;;
15254;SDS011;7730;49.610;11.136;2023-10-08T02:13:09;9.93;;;3.80;;
15254;SDS011;7730;49.610;11.136;2023-10-08T02:15:40;11.77;;;4.10;;
15254;SDS011;7730;49.610;11.136;2023-10-08T02:18:07;10.63;;;4.35;;
15254;SDS011;7730;49.610;11.136;2023-10-08T02:20:34;11.18;;;4.18;;
15254;SDS011;7730;49.610;11.136;2023-10-08T02:23:01;12.27;;;4.55;;
15254;SDS011;7730;49.610;11.136;2023-10-08T02:25:30;13.00;;;4.43;;
15254;SDS011;7730;49.610;11.136;2023-10-08T02:28:01;11.27;;;4.13;;
15254;SDS011;7730;49.610;11.136;2023-10-08T02:30:30;11.82;;;4.20;;
15254;SDS011;7730;49.610;11.136;2023-10-08T02:32:57;11.63;;;4.30;;
15254;SDS011;7730;49.610;11.136;2023-10-08T02:35:24;12.82;;;4.15;;
15254;SDS011;7730;49.610;11.136;2023-10-08T02:37:52;11.65;;;4.22;;
15254;SDS011;7730;49.610;11.136;2023-10-08T02:40:21;9.75;;;3.83;;
15254;SDS011;7730;49.610;11.136;2023-10-08T02:42:53;9.80;;;3.97;;
15254;SDS011;7730;49.610;11.136;2023-10-08T02:45:24;11.02;;;4.13;;
15254;SDS011;7730;49.610;11.136;2023-10-08T02:47:55;10.15;;;3.50;;
15254;SDS011;7730;49.610;11.136;2023-10-08T02:50:22;11.00;;;3.40;;
15254;SDS011;7730;49.610;11.136;2023-10-08T02:52:52;10.75;;;3.60;;
15254;SDS011;7730;49.610;11.136;2023-10-08T02:55:27;9.95;;;3.28;;
15254;SDS011;7730;49.610;11.136;2023-10-08T02:57:59;11.18;;;3.47;;
15254;SDS011;7730;49.610;11.136;2023-10-08T03:00:27;10.43;;;3.65;;
15254;SDS011;7730;49.610;11.136;2023-10-08T03:02:57;9.68;;;3.15;;
15254;SDS011;7730;49.610;11.136;2023-10-08T03:05:26;11.25;;;3.10;;
15254;SDS011;7730;49.610;11.136;2023-10-08T03:08:00;8.75;;;3.45;;
15254;SDS011;7730;49.610;11.136;2023-10-08T03:10:28;9.60;;;3.30;;
15254;SDS011;7730;49.610;11.136;2023-10-08T03:12:58;13.35;;;3.25;;
15254;SDS011;7730;49.610;11.136;2023-10-08T03:15:30;9.57;;;3.30;;
15254;SDS011;7730;49.610;11.136;2023-10-08T03:18:06;8.88;;;3.08;;
15254;SDS011;7730;49.610;11.136;2023-10-08T03:20:38;10.27;;;3.28;;
15254;SDS011;7730;49.610;11.136;2023-10-08T03:23:08;10.02;;;3.22;;
15254;SDS011;7730;49.610;11.136;2023-10-08T03:25:49;10.38;;;3.08;;
15254;SDS011;7730;49.610;11.136;2023-10-08T03:28:21;9.10;;;3.13;;
15254;SDS011;7730;49.610;11.136;2023-10-08T03:30:52;9.85;;;3.17;;
15254;SDS011;7730;49.610;11.136;2023-10-08T03:33:30;8.32;;;3.00;;
15254;SDS011;7730;49.610;11.136;2023-10-08T03:35:59;11.32;;;3.35;;
15254;SDS011;7730;49.610;11.136;2023-10-08T03:38:34;11.23;;;3.10;;
15254;SDS011;7730;49.610;11.136;2023-10-08T03:41:09;10.00;;;3.13;;
15254;SDS011;7730;49.610;11.136;2023-10-08T03:43:41;10.80;;;3.20;;
15254;SDS011;7730;49.610;11.136;2023-10-08T03:46:17;12.32;;;3.38;;
15254;SDS011;7730;49.610;11.136;2023-10-08T03:48:47;8.75;;;2.95;;
15254;SDS011;7730;49.610;11.136;2023-10-08T03:51:16;11.82;;;3.20;;
15254;SDS011;7730;49.610;11.136;2023-10-08T03:53:45;9.40;;;3.20;;
15254;SDS011;7730;49.610;11.136;2023-10-08T03:56:24;9.90;;;3.17;;
15254;SDS011;7730;49.610;11.136;2023-10-08T03:58:54;10.57;;;3.20;;
15254;SDS011;7730;49.610;11.136;2023-10-08T04:01:25;8.98;;;2.92;;
15254;SDS011;7730;49.610;11.136;2023-10-08T04:03:59;10.80;;;3.30;;
15254;SDS011;7730;49.610;11.136;2023-10-08T04:08:59;7.82;;;2.97;;
15254;SDS011;7730;49.610;11.136;2023-10-08T04:11:37;10.57;;;3.33;;
15254;SDS011;7730;49.610;11.136;2023-10-08T04:14:17;10.02;;;3.22;;
15254;SDS011;7730;49.610;11.136;2023-10-08T04:19:24;10.18;;;3.30;;
15254;SDS011;7730;49.610;11.136;2023-10-08T04:21:53;8.95;;;3.08;;
15254;SDS011;7730;49.610;11.136;2023-10-08T04:24:26;9.40;;;3.22;;
15254;SDS011;7730;49.610;11.136;2023-10-08T04:27:00;9.98;;;2.90;;
15254;SDS011;7730;49.610;11.136;2023-10-08T04:29:28;8.20;;;3.10;;
15254;SDS011;7730;49.610;11.136;2023-10-08T04:32:01;8.40;;;2.92;;
15254;SDS011;7730;49.610;11.136;2023-10-08T04:34:34;10.82;;;3.22;;
15254;SDS011;7730;49.610;11.136;2023-10-08T04:42:26;10.40;;;3.50;;
15254;SDS011;7730;49.610;11.136;2023-10-08T04:44:54;8.68;;;2.90;;
15254;SDS011;7730;49.610;11.136;2023-10-08T04:47:24;8.75;;;3.22;;
15254;SDS011;7730;49.610;11.136;2023-10-08T04:49:59;11.13;;;3.63;;
15254;SDS011;7730;49.610;11.136;2023-10-08T04:52:31;9.85;;;3.25;;
15254;SDS011;7730;49.610;11.136;2023-10-08T04:55:10;10.40;;;3.50;;
15254;SDS011;7730;49.610;11.136;2023-10-08T04:57:45;10.45;;;3.28;;
15254;SDS011;7730;49.610;11.136;2023-10-08T05:00:15;10.38;;;3.30;;
15254;SDS011;7730;49.610;11.136;2023-10-08T05:02:52;9.77;;;3.33;;
15254;SDS011;7730;49.610;11.136;2023-10-08T05:05:23;7.53;;;2.92;;
15254;SDS011;7730;49.610;11.136;2023-10-08T05:08:03;10.75;;;3.30;;
15254;SDS011;7730;49.610;11.136;2023-10-08T05:10:53;10.55;;;3.53;;
15254;SDS011;7730;49.610;11.136;2023-10-08T05:13:27;9.55;;;3.15;;
15254;SDS011;7730;49.610;11.136;2023-10-08T05:16:10;8.65;;;3.13;;
15254;SDS011;7730;49.610;11.136;2023-10-08T05:19:00;9.65;;;3.10;;
15254;SDS011;7730;49.610;11.136;2023-10-08T05:21:51;9.35;;;3.47;;
15254;SDS011;7730;49.610;11.136;2023-10-08T05:24:30;8.75;;;2.88;;
15254;SDS011;7730;49.610;11.136;2023-10-08T05:32:15;9.45;;;3.17;;
15254;SDS011;7730;49.610;11.136;2023-10-08T05:35:11;10.48;;;3.47;;
15254;SDS011;7730;49.610;11.136;2023-10-08T05:40:45;9.60;;;3.40;;
15254;SDS011;7730;49.610;11.136;2023-10-08T05:43:42;9.73;;;3.40;;
15254;SDS011;7730;49.610;11.136;2023-10-08T05:51:53;9.52;;;3.30;;
15254;SDS011;7730;49.610;11.136;2023-10-08T05:54:50;9.50;;;3.33;;
15254;SDS011;7730;49.610;11.136;2023-10-08T06:00:17;10.73;;;3.50;;
15254;SDS011;7730;49.610;11.136;2023-10-08T06:03:01;9.35;;;3.53;;
15254;SDS011;7730;49.610;11.136;2023-10-08T06:05:57;10.90;;;3.30;;
15254;SDS011;7730;49.610;11.136;2023-10-08T06:08:47;9.68;;;3.30;;
15254;SDS011;7730;49.610;11.136;2023-10-08T06:11:15;12.50;;;3.50;;
15254;SDS011;7730;49.610;11.136;2023-10-08T06:13:53;8.77;;;3.28;;
15254;SDS011;7730;49.610;11.136;2023-10-08T06:18:59;9.35;;;3.20;;
15254;SDS011;7730;49.610;11.136;2023-10-08T06:21:34;10.45;;;3.42;;
15254;SDS011;7730;49.610;11.136;2023-10-08T06:24:04;10.48;;;3.47;;
15254;SDS011;7730;49.610;11.136;2023-10-08T06:26:34;8.95;;;3.40;;
15254;SDS011;7730;49.610;11.136;2023-10-08T06:29:04;10.27;;;3.30;;
15254;SDS011;7730;49.610;11.136;2023-10-08T06:31:43;10.35;;;3.40;;
15254;SDS011;7730;49.610;11.136;2023-10-08T06:34:18;9.93;;;3.50;;
15254;SDS011;7730;49.610;11.136;2023-10-08T06:39:28;9.55;;;3.35;;
15254;SDS011;7730;49.610;11.136;2023-10-08T06:42:12;10.48;;;3.63;;
15254;SDS011;7730;49.610;11.136;2023-10-08T06:44:42;10.75;;;4.07;;
15254;SDS011;7730;49.610;11.136;2023-10-08T06:47:11;11.60;;;3.70;;
15254;SDS011;7730;49.610;11.136;2023-10-08T06:49:42;11.25;;;4.13;;
15254;SDS011;7730;49.610;11.136;2023-10-08T06:52:12;10.00;;;3.75;;
15254;SDS011;7730;49.610;11.136;2023-10-08T06:54:40;10.95;;;3.75;;
15254;SDS011;7730;49.610;11.136;2023-10-08T07:02:19;10.27;;;3.45;;
15254;SDS011;7730;49.610;11.136;2023-10-08T07:04:47;11.43;;;3.83;;
15254;SDS011;7730;49.610;11.136;2023-10-08T07:20:22;12.02;;;3.67;;
15254;SDS011;7730;49.610;11.136;2023-10-08T07:22:51;11.10;;;3.60;;
15254;SDS011;7730;49.610;11.136;2023-10-08T07:25:20;10.55;;;3.75;;
15254;SDS011;7730;49.610;11.136;2023-10-08T07:30:25;10.68;;;3.63;;
15254;SDS011;7730;49.610;11.136;2023-10-08T07:32:57;9.50;;;3.50;;
15254;SDS011;7730;49.610;11.136;2023-10-08T07:35:34;10.45;;;3.58;;
15254;SDS011;7730;49.610;11.136;2023-10-08T07:38:07;12.90;;;3.70;;
15254;SDS011;7730;49.610;11.136;2023-10-08T07:40:35;11.82;;;3.50;;
15254;SDS011;7730;49.610;11.136;2023-10-08T07:43:02;12.18;;;3.40;;
15254;SDS011;7730;49.610;11.136;2023-10-08T07:45:33;10.48;;;3.30;;
15254;SDS011;7730;49.610;11.136;2023-10-08T07:48:01;10.45;;;3.47;;
15254;SDS011;7730;49.610;11.136;2023-10-08T07:50:36;11.30;;;3.33;;
15254;SDS011;7730;49.610;11.136;2023-10-08T07:53:10;9.88;;;3.55;;
15254;SDS011;7730;49.610;11.136;2023-10-08T07:55:43;10.80;;;3.53;;
15254;SDS011;7730;49.610;11.136;2023-10-08T07:58:13;8.75;;;3.28;;
15254;SDS011;7730;49.610;11.136;2023-10-08T08:00:41;11.18;;;3.72;;
15254;SDS011;7730;49.610;11.136;2023-10-08T08:03:17;10.07;;;3.55;;
15254;SDS011;7730;49.610;11.136;2023-10-08T08:05:45;10.82;;;3.65;;
15254;SDS011;7730;49.610;11.136;2023-10-08T08:08:18;11.65;;;3.63;;
15254;SDS011;7730;49.610;11.136;2023-10-08T08:10:47;11.00;;;3.85;;
15254;SDS011;7730;49.610;11.136;2023-10-08T08:13:15;10.32;;;3.90;;
15254;SDS011;7730;49.610;11.136;2023-10-08T08:21:01;11.27;;;3.85;;
15254;SDS011;7730;49.610;11.136;2023-10-08T08:23:30;10.82;;;3.65;;
15254;SDS011;7730;49.610;11.136;2023-10-08T08:28:45;10.90;;;3.40;;
15254;SDS011;7730;49.610;11.136;2023-10-08T08:31:14;11.90;;;3.75;;
15254;SDS011;7730;49.610;11.136;2023-10-08T08:33:41;10.38;;;3.70;;
15254;SDS011;7730;49.610;11.136;2023-10-08T08:36:29;10.98;;;3.50;;
15254;SDS011;7730;49.610;11.136;2023-10-08T08:38:57;21.52;;;19.42;;
15254;SDS011;7730;49.610;11.136;2023-10-08T08:41:25;12.00;;;4.22;;
15254;SDS011;7730;49.610;11.136;2023-10-08T08:43:53;11.77;;;4.05;;
15254;SDS011;7730;49.610;11.136;2023-10-08T08:46:28;11.77;;;3.97;;
15254;SDS011;7730;49.610;11.136;2023-10-08T08:48:57;10.35;;;3.50;;
15254;SDS011;7730;49.610;11.136;2023-10-08T08:51:28;12.18;;;3.80;;
15254;SDS011;7730;49.610;11.136;2023-10-08T08:53:55;12.43;;;3.85;;
15254;SDS011;7730;49.610;11.136;2023-10-08T08:56:25;11.93;;;4.65;;
15254;SDS011;7730;49.610;11.136;2023-10-08T08:58:53;11.82;;;3.88;;
15254;SDS011;7730;49.610;11.136;2023-10-08T09:01:22;10.82;;;3.45;;
15254;SDS011;7730;49.610;11.136;2023-10-08T09:03:52;12.05;;;4.00;;
15254;SDS011;7730;49.610;11.136;2023-10-08T09:06:26;11.60;;;3.88;;
15254;SDS011;7730;49.610;11.136;2023-10-08T09:09:00;11.45;;;3.88;;
15254;SDS011;7730;49.610;11.136;2023-10-08T09:11:46;10.63;;;3.92;;
15254;SDS011;7730;49.610;11.136;2023-10-08T09:14:17;11.75;;;3.65;;
15254;SDS011;7730;49.610;11.136;2023-10-08T09:16:44;13.88;;;4.20;;
15254;SDS011;7730;49.610;11.136;2023-10-08T09:19:12;8.88;;;3.20;;
15254;SDS011;7730;49.610;11.136;2023-10-08T09:21:43;12.20;;;3.63;;
15254;SDS011;7730;49.610;11.136;2023-10-08T09:24:11;11.68;;;4.07;;
15254;SDS011;7730;49.610;11.136;2023-10-08T09:26:40;9.23;;;3.38;;
15254;SDS011;7730;49.610;11.136;2023-10-08T09:29:11;9.60;;;3.30;;
15254;SDS011;7730;49.610;11.136;2023-10-08T09:31:38;11.32;;;3.53;;
15254;SDS011;7730;49.610;11.136;2023-10-08T09:34:05;11.88;;;3.50;;
15254;SDS011;7730;49.610;11.136;2023-10-08T09:36:33;11.75;;;3.78;;
15254;SDS011;7730;49.610;11.136;2023-10-08T09:39:02;10.20;;;3.83;;
15254;SDS011;7730;49.610;11.136;2023-10-08T09:41:32;10.25;;;3.70;;
15254;SDS011;7730;49.610;11.136;2023-10-08T09:44:01;11.57;;;3.97;;
15254;SDS011;7730;49.610;11.136;2023-10-08T09:49:17;12.95;;;4.30;;
15254;SDS011;7730;49.610;11.136;2023-10-08T09:51:48;9.07;;;3.35;;
15254;SDS011;7730;49.610;11.136;2023-10-08T09:54:17;11.35;;;4.13;;
15254;SDS011;7730;49.610;11.136;2023-10-08T09:59:41;13.57;;;4.20;;
15254;SDS011;7730;49.610;11.136;2023-10-08T10:02:10;10.63;;;3.83;;
15254;SDS011;7730;49.610;11.136;2023-10-08T10:04:41;12.15;;;3.88;;
15254;SDS011;7730;49.610;11.136;2023-10-08T10:09:38;12.10;;;3.90;;
15254;SDS011;7730;49.610;11.136;2023-10-08T10:12:09;11.55;;;3.88;;
15254;SDS011;7730;49.610;11.136;2023-10-08T10:14:44;11.80;;;4.18;;
15254;SDS011;7730;49.610;11.136;2023-10-08T10:17:14;12.27;;;4.30;;
15254;SDS011;7730;49.610;11.136;2023-10-08T10:19:47;13.32;;;4.13;;
15254;SDS011;7730;49.610;11.136;2023-10-08T10:22:27;11.52;;;3.80;;
15254;SDS011;7730;49.610;11.136;2023-10-08T10:24:56;12.90;;;4.25;;
15254;SDS011;7730;49.610;11.136;2023-10-08T10:27:23;12.23;;;3.97;;
15254;SDS011;7730;49.610;11.136;2023-10-08T10:29:53;12.73;;;4.28;;
15254;SDS011;7730;49.610;11.136;2023-10-08T10:32:29;14.05;;;4.35;;
15254;SDS011;7730;49.610;11.136;2023-10-08T10:34:59;12.55;;;4.30;;
15254;SDS011;7730;49.610;11.136;2023-10-08T10:37:28;11.85;;;3.60;;
15254;SDS011;7730;49.610;11.136;2023-10-08T10:40:06;13.90;;;4.30;;
15254;SDS011;7730;49.610;11.136;2023-10-08T10:42:37;13.55;;;4.10;;
15254;SDS011;7730;49.610;11.136;2023-10-08T10:45:13;12.68;;;4.40;;
15254;SDS011;7730;49.610;11.136;2023-10-08T10:48:01;13.05;;;4.35;;
15254;SDS011;7730;49.610;11.136;2023-10-08T10:50:46;12.40;;;4.65;;
15254;SDS011;7730;49.610;11.136;2023-10-08T10:53:31;11.63;;;4.15;;
15254;SDS011;7730;49.610;11.136;2023-10-08T10:55:58;13.30;;;4.63;;
15254;SDS011;7730;49.610;11.136;2023-10-08T10:58:34;12.88;;;4.57;;
15254;SDS011;7730;49.610;11.136;2023-10-08T11:01:07;10.48;;;3.97;;
15254;SDS011;7730;49.610;11.136;2023-10-08T11:03:48;13.07;;;4.30;;
15254;SDS011;7730;49.610;11.136;2023-10-08T11:06:16;13.93;;;4.40;;
15254;SDS011;7730;49.610;11.136;2023-10-08T11:08:47;12.18;;;4.10;;
15254;SDS011;7730;49.610;11.136;2023-10-08T11:11:16;11.88;;;4.00;;
15254;SDS011;7730;49.610;11.136;2023-10-08T11:13:43;12.00;;;4.10;;
15254;SDS011;7730;49.610;11.136;2023-10-08T11:16:18;12.77;;;4.00;;
15254;SDS011;7730;49.610;11.136;2023-10-08T11:18:47;13.88;;;4.30;;
15254;SDS011;7730;49.610;11.136;2023-10-08T11:21:15;12.88;;;4.40;;
15254;SDS011;7730;49.610;11.136;2023-10-08T11:23:48;12.38;;;4.18;;
15254;SDS011;7730;49.610;11.136;2023-10-08T11:26:20;12.38;;;3.85;;
15254;SDS011;7730;49.610;11.136;2023-10-08T11:28:57;12.75;;;5.13;;
15254;SDS011;7730;49.610;11.136;2023-10-08T11:31:29;11.50;;;3.95;;
15254;SDS011;7730;49.610;11.136;2023-10-08T11:33:59;13.43;;;4.18;;
15254;SDS011;7730;49.610;11.136;2023-10-08T11:36:27;11.20;;;3.95;;
15254;SDS011;7730;49.610;11.136;2023-10-08T11:38:54;10.90;;;4.00;;
15254;SDS011;7730;49.610;11.136;2023-10-08T11:41:26;12.57;;;4.30;;
15254;SDS011;7730;49.610;11.136;2023-10-08T11:43:53;11.65;;;3.90;;
15254;SDS011;7730;49.610;11.136;2023-10-08T11:46:23;13.63;;;4.70;;
15254;SDS011;7730;49.610;11.136;2023-10-08T11:48:54;12.82;;;4.38;;
15254;SDS011;7730;49.610;11.136;2023-10-08T11:51:29;13.00;;;4.70;;
15254;SDS011;7730;49.610;11.136;2023-10-08T11:53:59;13.45;;;4.43;;
15254;SDS011;7730;49.610;11.136;2023-10-08T11:56:26;12.05;;;3.88;;
15254;SDS011;7730;49.610;11.136;2023-10-08T11:58:55;12.65;;;4.10;;
15254;SDS011;7730;49.610;11.136;2023-10-08T12:01:25;13.25;;;4.10;;
15254;SDS011;7730;49.610;11.136;2023-10-08T12:03:54;11.85;;;3.97;;
15254;SDS011;7730;49.610;11.136;2023-10-08T12:06:24;11.00;;;4.20;;
15254;SDS011;7730;49.610;11.136;2023-10-08T12:08:54;11.60;;;4.00;;
15254;SDS011;7730;49.610;11.136;2023-10-08T12:11:23;12.07;;;4.20;;
15254;SDS011;7730;49.610;11.136;2023-10-08T12:13:56;11.48;;;4.05;;
15254;SDS011;7730;49.610;11.136;2023-10-08T12:16:24;12.70;;;4.35;;
15254;SDS011;7730;49.610;11.136;2023-10-08T12:19:01;13.07;;;4.45;;
15254;SDS011;7730;49.610;11.136;2023-10-08T12:21:40;12.15;;;4.28;;
15254;SDS011;7730;49.610;11.136;2023-10-08T12:24:07;12.02;;;4.40;;
15254;SDS011;7730;49.610;11.136;2023-10-08T12:26:37;13.10;;;4.85;;
15254;SDS011;7730;49.610;11.136;2023-10-08T12:29:07;12.20;;;4.10;;
15254;SDS011;7730;49.610;11.136;2023-10-08T12:31:34;12.63;;;4.53;;
15254;SDS011;7730;49.610;11.136;2023-10-08T12:34:03;15.13;;;4.45;;
15254;SDS011;7730;49.610;11.136;2023-10-08T12:36:30;14.05;;;4.40;;
15254;SDS011;7730;49.610;11.136;2023-10-08T12:38:58;13.98;;;4.10;;
15254;SDS011;7730;49.610;11.136;2023-10-08T12:41:33;13.13;;;4.55;;
15254;SDS011;7730;49.610;11.136;2023-10-08T12:44:03;13.77;;;4.50;;
15254;SDS011;7730;49.610;11.136;2023-10-08T12:46:33;12.05;;;4.40;;
15254;SDS011;7730;49.610;11.136;2023-10-08T12:49:02;12.55;;;4.00;;
15254;SDS011;7730;49.610;11.136;2023-10-08T12:51:32;12.02;;;4.90;;
15254;SDS011;7730;49.610;11.136;2023-10-08T12:54:00;12.32;;;4.40;;
15254;SDS011;7730;49.610;11.136;2023-10-08T12:56:32;12.68;;;4.40;;
15254;SDS011;7730;49.610;11.136;2023-10-08T12:59:04;15.50;;;4.57;;
15254;SDS011;7730;49.610;11.136;2023-10-08T13:01:32;13.85;;;4.47;;
15254;SDS011;7730;49.610;11.136;2023-10-08T13:04:01;13.05;;;4.25;;
15254;SDS011;7730;49.610;11.136;2023-10-08T13:06:33;12.48;;;4.80;;
15254;SDS011;7730;49.610;11.136;2023-10-08T13:09:02;12.45;;;4.50;;
15254;SDS011;7730;49.610;11.136;2023-10-08T13:11:34;11.60;;;4.45;;
15254;SDS011;7730;49.610;11.136;2023-10-08T13:14:05;12.35;;;4.65;;
15254;SDS011;7730;49.610;11.136;2023-10-08T13:16:32;14.80;;;4.60;;
15254;SDS011;7730;49.610;11.136;2023-10-08T13:19:02;11.13;;;4.40;;
15254;SDS011;7730;49.610;11.136;2023-10-08T13:21:29;12.90;;;4.10;;
15254;SDS011;7730;49.610;11.136;2023-10-08T13:23:59;13.10;;;4.20;;
15254;SDS011;7730;49.610;11.136;2023-10-08T13:26:27;14.18;;;4.28;;
15254;SDS011;7730;49.610;11.136;2023-10-08T13:29:04;12.10;;;4.05;;
15254;SDS011;7730;49.610;11.136;2023-10-08T13:31:32;13.80;;;4.00;;
15254;SDS011;7730;49.610;11.136;2023-10-08T13:34:01;12.15;;;4.00;;
15254;SDS011;7730;49.610;11.136;2023-10-08T13:36:34;14.57;;;4.40;;
15254;SDS011;7730;49.610;11.136;2023-10-08T13:39:04;11.82;;;3.67;;
15254;SDS011;7730;49.610;11.136;2023-10-08T13:41:34;11.75;;;4.20;;
15254;SDS011;7730;49.610;11.136;2023-10-08T13:44:02;13.40;;;3.92;;
15254;SDS011;7730;49.610;11.136;2023-10-08T13:46:31;10.70;;;3.88;;
15254;SDS011;7730;49.610;11.136;2023-10-08T13:49:01;11.73;;;4.07;;
15254;SDS011;7730;49.610;11.136;2023-10-08T13:51:30;12.48;;;4.13;;
15254;SDS011;7730;49.610;11.136;2023-10-08T13:54:00;10.68;;;3.67;;
15254;SDS011;7730;49.610;11.136;2023-10-08T13:56:33;12.00;;;3.85;;
15254;SDS011;7730;49.610;11.136;2023-10-08T13:59:03;10.43;;;3.45;;
15254;SDS011;7730;49.610;11.136;2023-10-08T14:01:39;10.52;;;3.83;;
15254;SDS011;7730;49.610;11.136;2023-10-08T14:04:08;9.43;;;3.67;;
15254;SDS011;7730;49.610;11.136;2023-10-08T14:06:37;8.95;;;3.30;;
15254;SDS011;7730;49.610;11.136;2023-10-08T14:09:07;10.48;;;3.40;;
15254;SDS011;7730;49.610;11.136;2023-10-08T14:11:38;6.97;;;3.00;;
15254;SDS011;7730;49.610;11.136;2023-10-08T14:14:05;9.77;;;3.05;;
15254;SDS011;7730;49.610;11.136;2023-10-08T14:16:37;8.55;;;3.00;;
15254;SDS011;7730;49.610;11.136;2023-10-08T14:19:07;8.68;;;3.10;;
15254;SDS011;7730;49.610;11.136;2023-10-08T14:21:37;8.50;;;3.15;;
15254;SDS011;7730;49.610;11.136;2023-10-08T14:24:14;8.40;;;3.00;;
15254;SDS011;7730;49.610;11.136;2023-10-08T14:26:42;7.15;;;2.83;;
15254;SDS011;7730;49.610;11.136;2023-10-08T14:29:16;10.15;;;3.30;;
15254;SDS011;7730;49.610;11.136;2023-10-08T14:31:45;10.55;;;3.00;;
15254;SDS011;7730;49.610;11.136;2023-10-08T14:34:14;7.40;;;2.80;;
15254;SDS011;7730;49.610;11.136;2023-10-08T14:37:07;7.90;;;2.90;;
15254;SDS011;7730;49.610;11.136;2023-10-08T14:39:52;7.00;;;2.95;;
15254;SDS011;7730;49.610;11.136;2023-10-08T14:42:39;8.85;;;3.25;;
15254;SDS011;7730;49.610;11.136;2023-10-08T14:45:21;9.73;;;3.05;;
15254;SDS011;7730;49.610;11.136;2023-10-08T14:47:51;7.63;;;2.90;;
15254;SDS011;7730;49.610;11.136;2023-10-08T14:50:25;7.75;;;2.78;;
15254;SDS011;7730;49.610;11.136;2023-10-08T14:52:57;9.88;;;3.20;;
15254;SDS011;7730;49.610;11.136;2023-10-08T14:55:26;8.80;;;2.95;;
15254;SDS011;7730;49.610;11.136;2023-10-08T14:57:56;7.85;;;2.70;;
15254;SDS011;7730;49.610;11.136;2023-10-08T15:00:23;8.50;;;3.00;;
15254;SDS011;7730;49.610;11.136;2023-10-08T15:02:52;9.02;;;3.08;;
15254;SDS011;7730;49.610;11.136;2023-10-08T15:05:20;9.65;;;3.50;;
15254;SDS011;7730;49.610;11.136;2023-10-08T15:07:47;11.07;;;3.80;;
15254;SDS011;7730;49.610;11.136;2023-10-08T15:10:15;8.55;;;2.90;;
15254;SDS011;7730;49.610;11.136;2023-10-08T15:12:43;9.80;;;2.85;;
15254;SDS011;7730;49.610;11.136;2023-10-08T15:15:13;9.55;;;3.08;;
15254;SDS011;7730;49.610;11.136;2023-10-08T15:17:41;9.43;;;3.10;;
15254;SDS011;7730;49.610;11.136;2023-10-08T15:20:09;7.75;;;3.10;;
15254;SDS011;7730;49.610;11.136;2023-10-08T15:22:39;9.00;;;3.17;;
15254;SDS011;7730;49.610;11.136;2023-10-08T15:25:07;8.90;;;3.78;;
15254;SDS011;7730;49.610;11.136;2023-10-08T15:27:35;7.38;;;3.00;;
15254;SDS011;7730;49.610;11.136;2023-10-08T15:30:06;8.27;;;3.10;;
15254;SDS011;7730;49.610;11.136;2023-10-08T15:32:38;8.93;;;2.90;;
15254;SDS011;7730;49.610;11.136;2023-10-08T15:35:09;8.80;;;2.50;;
15254;SDS011;7730;49.610;11.136;2023-10-08T15:37:39;7.68;;;2.47;;
15254;SDS011;7730;49.610;11.136;2023-10-08T15:40:07;7.63;;;2.50;;
15254;SDS011;7730;49.610;11.136;2023-10-08T15:42:42;5.97;;;2.67;;
15254;SDS011;7730;49.610;11.136;2023-10-08T15:45:09;5.32;;;2.20;;
15254;SDS011;7730;49.610;11.136;2023-10-08T15:47:38;7.05;;;2.70;;
15254;SDS011;7730;49.610;11.136;2023-10-08T15:50:06;9.40;;;3.55;;
15254;SDS011;7730;49.610;11.136;2023-10-08T15:52:35;7.43;;;3.42;;
15254;SDS011;7730;49.610;11.136;2023-10-08T15:55:02;6.97;;;2.25;;
15254;SDS011;7730;49.610;11.136;2023-10-08T15:57:29;7.45;;;1.90;;
15254;SDS011;7730;49.610;11.136;2023-10-08T15:59:56;3.30;;;1.77;;
15254;SDS011;7730;49.610;11.136;2023-10-08T16:02:23;5.07;;;1.90;;
15254;SDS011;7730;49.610;11.136;2023-10-08T16:04:52;5.63;;;1.98;;
15254;SDS011;7730;49.610;11.136;2023-10-08T16:09:51;5.18;;;1.90;;
15254;SDS011;7730;49.610;11.136;2023-10-08T16:12:18;4.55;;;1.80;;
15254;SDS011;7730;49.610;11.136;2023-10-08T16:14:45;5.10;;;2.05;;
15254;SDS011;7730;49.610;11.136;2023-10-08T16:17:14;7.28;;;2.40;;